Date,TemperatureHighF,TemperatureAvgF,TemperatureLowF,DewpointHighF,DewpointAvgF,DewpointLowF,HumidityHigh,HumidityAvg,HumidityLow,PressureMaxIn,PressureMinIn,WindSpeedMaxMPH,WindSpeedAvgMPH,GustSpeedMaxMPH,PrecipitationSumIn
2013-3-1,43.6,40.3,35.8,32.0,29.5,26.0,71,64,53,29.64,29.48,6,1,7,0.00
2013-3-2,37.0,33.0,29.5,26.0,23.4,21.0,74,66,54,29.64,29.57,8,1,8,0.00
2013-3-3,40.6,33.4,28.3,24.0,21.3,18.0,76,59,44,29.67,29.54,8,2,10,0.00
2013-3-4,41.6,33.5,27.6,24.0,18.5,16.0,72,54,38,29.78,29.66,9,2,12,0.00
2013-3-5,52.6,39.3,26.4,31.0,22.5,16.0,79,52,24,29.83,29.56,4,0,7,0.00
2013-3-6,37.3,34.5,32.4,37.0,34.0,31.0,99,96,78,29.75,29.35,8,1,9,0.77
2013-3-7,48.9,40.6,32.9,35.0,30.5,28.0,89,68,48,29.90,29.74,8,1,11,0.04
2013-3-8,47.3,41.3,35.3,31.0,28.6,28.0,75,61,48,30.02,29.88,10,2,13,0.00
2013-3-9,60.3,44.1,33.0,40.0,29.3,24.0,88,59,29,30.10,30.00,6,0,7,0.00
2013-3-10,66.9,46.6,27.6,36.0,28.5,21.0,95,56,22,30.08,29.96,3,0,6,0.00
2013-3-11,60.4,51.2,42.1,50.0,44.2,33.0,93,78,63,30.00,29.67,6,0,7,0.00
2013-3-12,57.2,52.4,40.7,56.5,46.7,32.0,99,81,63,29.72,29.45,8,1,10,0.71
2013-3-13,50.3,40.5,29.5,36.0,28.7,21.0,95,64,37,29.81,29.65,6,1,10,0.00
2013-3-14,44.6,37.0,31.3,24.0,20.1,16.0,65,50,35,29.88,29.77,10,2,14,0.00
2013-3-15,59.6,42.5,25.9,41.0,27.9,18.0,87,59,30,29.84,29.53,4,0,6,0.00
2013-3-16,61.9,46.7,36.6,50.5,37.8,33.0,90,72,48,29.66,29.39,6,0,7,0.18
2013-3-17,40.6,36.9,29.8,35.0,30.5,26.0,97,78,61,30.02,29.65,6,0,6,0.00
2013-3-18,37.4,35.3,30.8,37.0,30.7,23.0,100,84,55,30.07,29.63,2,0,3,0.00
2013-3-19,57.2,44.8,35.4,44.0,31.8,11.0,100,69,19,29.67,29.46,14,1,14,0.00
2013-3-20,53.7,43.7,30.8,24.0,16.7,11.0,53,33,23,29.75,29.52,8,1,15,0.00
2013-3-21,40.4,33.5,28.3,29.0,16.9,8.0,85,49,36,29.65,29.51,11,2,13,0.00
2013-3-22,46.1,35.6,24.5,21.0,17.4,11.0,63,46,34,29.75,29.63,8,1,12,0.00
2013-3-23,51.5,39.0,24.7,26.0,23.1,21.0,87,55,32,29.79,29.66,10,1,11,0.00
2013-3-24,45.0,36.2,27.2,32.0,25.1,23.0,96,65,40,29.75,29.40,1,0,2,0.00
2013-3-25,35.9,33.7,32.2,36.0,33.8,32.0,100,99,96,29.45,29.27,3,0,4,0.00
2013-3-26,48.7,40.6,31.7,38.0,32.5,28.0,100,75,43,29.74,29.45,8,1,11,0.00
2013-3-27,51.1,43.0,36.9,32.0,29.1,24.0,73,58,42,29.88,29.74,7,2,11,0.00
2013-3-28,48.5,42.3,32.7,32.0,30.2,28.0,80,62,47,29.98,29.84,8,1,10,0.00
2013-3-29,60.3,47.0,39.2,33.0,31.2,28.0,74,56,32,30.01,29.90,6,1,8,0.00
2013-3-30,64.9,46.7,32.0,36.0,29.6,24.0,89,57,26,29.98,29.86,4,0,6,0.00
2013-3-31,54.8,47.8,41.0,51.0,41.0,29.0,97,78,60,29.88,29.50,1,0,1,0.00